Time;durP1;ratioP1;P1;durP2;ratioP2;P2;SDS_P1;SDS_P2;PMS_P1;PMS_P2;Temp;Humidity;BMP_temperature;BMP_pressure;BME280_temperature;BME280_humidity;BME280_pressure;Samples;Min_cycle;Max_cycle;Signal;HPM_P1;HPM_P2
2022/06/24 00:00:15;;;;;;;9.18;5.57;;;23.40;99.90;;;;;;5085545;27;20085;-84
2022/06/24 00:02:49;;;;;;;8.80;5.80;;;23.40;99.90;;;;;;5102197;27;20099;-84
2022/06/24 00:05:15;;;;;;;11.52;7.32;;;23.40;99.90;;;;;;5102173;28;20073;-83
2022/06/24 00:07:51;;;;;;;10.68;5.93;;;23.30;99.90;;;;;;5086395;27;20078;-85
2022/06/24 00:10:31;;;;;;;9.30;7.00;;;23.30;99.90;;;;;;5088113;27;20043;-84
2022/06/24 00:12:56;;;;;;;10.95;6.90;;;23.30;99.90;;;;;;5093598;27;20555;-84
2022/06/24 00:15:33;;;;;;;9.07;6.95;;;23.30;99.90;;;;;;5068169;27;20057;-84
2022/06/24 00:18:16;;;;;;;8.85;7.05;;;23.30;99.90;;;;;;5093705;27;20157;-83
2022/06/24 00:20:49;;;;;;;9.73;5.70;;;23.30;99.90;;;;;;5103971;27;20032;-84
2022/06/24 00:23:18;;;;;;;10.80;6.88;;;23.20;99.90;;;;;;5102179;27;20051;-85
2022/06/24 00:25:46;;;;;;;11.10;6.80;;;23.30;99.90;;;;;;5087715;28;20051;-84
2022/06/24 00:28:13;;;;;;;11.55;6.57;;;23.10;99.90;;;;;;5110832;28;20054;-83
2022/06/24 00:30:39;;;;;;;8.93;6.93;;;23.30;99.90;;;;;;5084220;27;20126;-85
2022/06/24 00:33:25;;;;;;;9.68;7.55;;;23.20;99.90;;;;;;5103941;28;20567;-83
2022/06/24 00:35:56;;;;;;;8.20;7.15;;;23.30;99.90;;;;;;5101074;28;20047;-83
2022/06/24 00:38:25;;;;;;;10.15;6.63;;;23.20;99.90;;;;;;5117281;28;20048;-83
2022/06/24 00:40:57;;;;;;;8.60;6.45;;;23.20;99.90;;;;;;5107753;28;20090;-84
2022/06/24 00:43:38;;;;;;;9.15;6.13;;;23.20;99.90;;;;;;5118640;28;20039;-83
2022/06/24 00:46:10;;;;;;;7.85;4.70;;;23.20;99.90;;;;;;5118721;27;20099;-84
2022/06/24 00:48:38;;;;;;;7.88;5.47;;;23.20;99.90;;;;;;5103431;27;20070;-85
2022/06/24 00:51:07;;;;;;;6.65;5.40;;;23.20;99.90;;;;;;5105121;27;20051;-85
2022/06/24 00:53:44;;;;;;;7.05;5.20;;;23.20;99.90;;;;;;5105295;27;20116;-85
2022/06/24 00:56:15;;;;;;;9.43;6.55;;;23.20;99.90;;;;;;5114504;27;20487;-84
2022/06/24 00:58:50;;;;;;;11.05;6.32;;;23.20;99.90;;;;;;5113457;27;20061;-84
2022/06/24 01:01:16;;;;;;;11.75;7.15;;;23.30;99.90;;;;;;5105745;27;20042;-85
2022/06/24 01:03:43;;;;;;;10.35;6.93;;;23.10;99.90;;;;;;5098824;27;20044;-85
2022/06/24 01:06:09;;;;;;;12.15;7.63;;;23.10;99.90;;;;;;5108148;27;20100;-84
2022/06/24 01:08:35;;;;;;;9.60;7.15;;;23.10;99.90;;;;;;5108438;27;20057;-83
2022/06/24 01:11:01;;;;;;;10.10;7.20;;;23.00;99.90;;;;;;5104251;27;20075;-84
2022/06/24 01:13:30;;;;;;;12.15;7.07;;;23.00;99.90;;;;;;5104183;27;20035;-85
2022/06/24 01:15:56;;;;;;;10.40;6.65;;;23.00;99.90;;;;;;5091413;27;20085;-84
2022/06/24 01:18:22;;;;;;;9.82;7.53;;;23.00;99.90;;;;;;5111164;27;20130;-84
2022/06/24 01:20:48;;;;;;;13.05;7.78;;;23.10;99.90;;;;;;5119871;27;20048;-84
2022/06/24 01:23:25;;;;;;;10.68;7.57;;;23.10;99.90;;;;;;5111893;27;20039;-85
2022/06/24 01:25:52;;;;;;;11.70;7.63;;;23.00;99.90;;;;;;5107365;27;20043;-84
2022/06/24 01:28:17;;;;;;;10.73;7.38;;;23.00;99.90;;;;;;5106528;27;20130;-85
2022/06/24 01:30:43;;;;;;;12.20;7.13;;;23.00;99.90;;;;;;5091989;27;20130;-84
2022/06/24 01:33:09;;;;;;;11.30;8.00;;;23.00;99.90;;;;;;5089945;27;20068;-84
2022/06/24 01:35:35;;;;;;;9.20;7.00;;;23.00;99.90;;;;;;5089721;27;20119;-84
2022/06/24 01:38:01;;;;;;;9.80;7.85;;;22.80;99.90;;;;;;5097333;27;20051;-84
2022/06/24 01:40:26;;;;;;;9.95;7.00;;;23.00;99.90;;;;;;5088793;27;20143;-85
2022/06/24 01:42:52;;;;;;;9.13;7.30;;;23.00;99.90;;;;;;5055347;27;20043;-84
2022/06/24 01:45:18;;;;;;;8.20;7.35;;;23.00;99.90;;;;;;5086539;27;20043;-84
2022/06/24 01:47:44;;;;;;;11.10;8.02;;;22.90;99.90;;;;;;5080440;27;20054;-84
2022/06/24 01:50:10;;;;;;;8.80;7.80;;;22.90;99.90;;;;;;5091516;27;20053;-84
2022/06/24 01:52:35;;;;;;;9.40;6.88;;;22.90;99.90;;;;;;5092516;27;20057;-84
2022/06/24 01:55:05;;;;;;;10.65;7.65;;;22.90;99.90;;;;;;5105551;27;20059;-84
2022/06/24 01:57:31;;;;;;;9.00;7.97;;;22.90;99.90;;;;;;5088019;27;20299;-84
2022/06/24 01:59:59;;;;;;;8.63;6.70;;;22.90;99.90;;;;;;5071641;27;20058;-84
2022/06/24 02:02:25;;;;;;;10.48;7.53;;;22.90;99.90;;;;;;5104652;27;20043;-85
2022/06/24 02:04:54;;;;;;;9.73;6.97;;;22.80;99.90;;;;;;5087208;27;20124;-85
2022/06/24 02:07:20;;;;;;;9.80;6.80;;;22.90;99.90;;;;;;5077248;27;20089;-84
2022/06/24 02:15:15;;;;;;;8.95;6.50;;;22.80;99.90;;;;;;5092340;27;20047;-85
2022/06/24 02:17:41;;;;;;;9.50;7.50;;;22.80;99.90;;;;;;5069837;27;20051;-84
2022/06/24 02:20:07;;;;;;;7.80;6.85;;;22.80;99.90;;;;;;5096286;27;20116;-84
2022/06/24 02:22:36;;;;;;;8.75;6.63;;;22.80;99.90;;;;;;5091376;27;20059;-83
2022/06/24 02:25:02;;;;;;;9.63;5.95;;;22.80;99.90;;;;;;5088669;27;20062;-84
2022/06/24 02:27:28;;;;;;;8.55;6.13;;;22.80;99.90;;;;;;5095708;27;20051;-85
2022/06/24 02:29:54;;;;;;;8.38;6.78;;;22.80;99.90;;;;;;5087947;27;20088;-84
2022/06/24 02:32:19;;;;;;;9.73;6.65;;;22.80;99.90;;;;;;5086848;27;20062;-84
2022/06/24 02:34:45;;;;;;;7.65;6.85;;;22.70;99.90;;;;;;5088260;27;20100;-84
2022/06/24 02:37:11;;;;;;;9.23;6.90;;;22.70;99.90;;;;;;5071695;27;20071;-85
2022/06/24 02:39:36;;;;;;;9.05;6.30;;;22.70;99.90;;;;;;5069840;27;20047;-85
2022/06/24 02:42:03;;;;;;;10.13;5.55;;;23.20;99.90;;;;;;5103372;27;20043;-85
2022/06/24 02:44:28;;;;;;;12.05;7.05;;;22.70;99.90;;;;;;5094112;27;20040;-85
2022/06/24 02:46:54;;;;;;;8.60;6.03;;;22.70;99.90;;;;;;5095314;27;20070;-84
2022/06/24 02:49:20;;;;;;;9.00;5.80;;;22.20;99.90;;;;;;5090896;27;20544;-85
2022/06/24 02:51:46;;;;;;;11.23;6.38;;;22.60;99.90;;;;;;5096563;27;20050;-84
2022/06/24 02:54:14;;;;;;;7.45;6.10;;;22.60;99.90;;;;;;5073643;27;20055;-85
2022/06/24 02:56:40;;;;;;;9.43;6.50;;;22.60;99.90;;;;;;5075397;27;20066;-84
2022/06/24 02:59:06;;;;;;;9.48;6.15;;;22.50;99.90;;;;;;5086139;27;20043;-85
2022/06/24 03:01:31;;;;;;;11.57;7.13;;;22.50;99.90;;;;;;5070075;27;20464;-84
2022/06/24 03:03:57;;;;;;;11.35;6.85;;;22.50;99.90;;;;;;5061567;27;20053;-84
2022/06/24 03:06:23;;;;;;;9.48;6.65;;;22.50;99.90;;;;;;5105209;27;20690;-84
2022/06/24 03:08:49;;;;;;;9.30;6.03;;;22.40;99.90;;;;;;5093801;27;20048;-84
2022/06/24 03:11:15;;;;;;;14.40;8.32;;;22.30;99.90;;;;;;5091438;27;20051;-84
2022/06/24 03:13:40;;;;;;;10.05;7.80;;;22.50;99.90;;;;;;5096742;27;20051;-84
2022/06/24 03:16:06;;;;;;;11.60;8.65;;;22.40;99.90;;;;;;5073397;27;20048;-83
2022/06/24 03:18:32;;;;;;;11.07;9.10;;;22.30;99.90;;;;;;5104559;27;20057;-84
2022/06/24 03:20:58;;;;;;;12.05;9.70;;;22.30;99.90;;;;;;5087745;27;20118;-83
2022/06/24 03:23:24;;;;;;;14.38;10.18;;;22.30;99.90;;;;;;5068314;27;20050;-83
2022/06/24 03:25:49;;;;;;;11.93;10.60;;;22.20;99.90;;;;;;5087811;27;20046;-84
2022/06/24 03:28:15;;;;;;;12.27;9.73;;;22.20;99.90;;;;;;5100945;27;20055;-84
2022/06/24 03:30:41;;;;;;;15.00;8.30;;;21.80;99.90;;;;;;5076466;27;20092;-83
2022/06/24 03:33:07;;;;;;;18.05;7.18;;;22.20;99.90;;;;;;5070290;27;20057;-83
2022/06/24 03:35:33;;;;;;;15.73;6.30;;;22.10;99.90;;;;;;5086632;27;20092;-85
2022/06/24 03:37:59;;;;;;;13.68;6.10;;;22.00;99.90;;;;;;5070479;27;20051;-83
2022/06/24 03:40:25;;;;;;;17.77;5.55;;;21.80;99.90;;;;;;5087465;27;20404;-83
2022/06/24 03:42:51;;;;;;;20.58;5.60;;;21.70;99.90;;;;;;5110806;27;20044;-84
2022/06/24 03:45:17;;;;;;;21.10;6.65;;;21.60;99.90;;;;;;5086993;27;20489;-86
2022/06/24 03:47:43;;;;;;;25.35;6.35;;;21.10;99.90;;;;;;5086520;27;20053;-85
2022/06/24 03:50:09;;;;;;;17.95;4.95;;;21.30;99.90;;;;;;5088720;27;20145;-84
2022/06/24 03:52:35;;;;;;;12.98;3.85;;;21.20;99.90;;;;;;5085683;27;20051;-86
2022/06/24 03:55:01;;;;;;;10.88;3.25;;;21.10;99.90;;;;;;5102446;27;20066;-84
2022/06/24 03:57:26;;;;;;;7.32;2.83;;;21.10;99.90;;;;;;5085955;27;20051;-85
2022/06/24 03:59:54;;;;;;;7.32;2.70;;;21.00;99.90;;;;;;5086611;28;20035;-85
2022/06/24 04:02:24;;;;;;;7.95;2.28;;;20.90;99.90;;;;;;5078708;27;20115;-86
2022/06/24 04:04:52;;;;;;;8.10;2.80;;;20.80;99.90;;;;;;5087755;27;20450;-84
2022/06/24 04:07:18;;;;;;;10.75;3.10;;;20.70;99.90;;;;;;5093019;27;20103;-85
2022/06/24 04:09:43;;;;;;;13.88;3.28;;;20.60;99.90;;;;;;5084780;27;20043;-84
2022/06/24 04:12:10;;;;;;;9.23;2.97;;;20.50;99.90;;;;;;5085406;28;20064;-84
2022/06/24 04:17:20;;;;;;;9.80;3.33;;;20.40;99.90;;;;;;5102075;27;20051;-84
2022/06/24 04:19:46;;;;;;;7.32;3.00;;;20.30;99.90;;;;;;5100916;27;20058;-84
2022/06/24 04:22:11;;;;;;;11.32;2.97;;;20.20;99.90;;;;;;5052497;27;20100;-84
2022/06/24 04:24:37;;;;;;;11.00;3.50;;;20.20;99.90;;;;;;5084665;28;20182;-85
2022/06/24 04:27:03;;;;;;;9.25;2.92;;;19.80;99.90;;;;;;5085606;28;20079;-84
2022/06/24 04:29:29;;;;;;;5.97;2.75;;;20.20;99.90;;;;;;5084531;28;20134;-84
2022/06/24 04:31:55;;;;;;;6.03;3.28;;;20.10;99.90;;;;;;5068744;27;20573;-84
2022/06/24 04:34:20;;;;;;;9.20;2.83;;;19.70;99.90;;;;;;5092168;27;20082;-84
2022/06/24 04:36:46;;;;;;;9.40;3.55;;;20.10;99.90;;;;;;5085422;28;20476;-84
2022/06/24 04:39:12;;;;;;;10.60;4.15;;;20.10;99.90;;;;;;5085303;28;20461;-84
2022/06/24 04:41:38;;;;;;;13.35;3.95;;;20.00;99.90;;;;;;5085416;28;20058;-84
2022/06/24 04:44:03;;;;;;;18.20;4.88;;;19.90;99.90;;;;;;5068510;28;20059;-84
2022/06/24 04:46:29;;;;;;;11.15;3.45;;;19.90;99.90;;;;;;5085207;28;20507;-84
2022/06/24 04:48:55;;;;;;;16.15;5.03;;;19.90;99.90;;;;;;5084397;28;20048;-85
2022/06/24 04:51:21;;;;;;;12.18;4.13;;;19.90;99.90;;;;;;5101030;28;20050;-85
2022/06/24 04:53:46;;;;;;;10.60;3.65;;;19.90;99.90;;;;;;5066717;28;20047;-85
2022/06/24 04:56:14;;;;;;;13.75;4.75;;;19.80;99.90;;;;;;5067745;28;20172;-86
2022/06/24 04:58:40;;;;;;;9.88;4.00;;;19.80;99.90;;;;;;5086206;28;20633;-86
2022/06/24 05:01:06;;;;;;;17.38;5.25;;;19.70;99.90;;;;;;5085318;28;20051;-85
2022/06/24 05:03:32;;;;;;;13.13;4.63;;;19.70;99.90;;;;;;5101818;28;20119;-86
2022/06/24 05:05:58;;;;;;;13.85;4.15;;;19.70;99.90;;;;;;5068394;28;20047;-85
2022/06/24 05:08:24;;;;;;;8.10;3.20;;;19.60;99.90;;;;;;5084782;28;20055;-86
2022/06/24 05:10:49;;;;;;;6.85;2.97;;;19.60;99.90;;;;;;5084375;28;20080;-86
2022/06/24 05:13:17;;;;;;;8.95;3.58;;;19.60;99.90;;;;;;5067894;28;20132;-85
2022/06/24 05:15:43;;;;;;;10.98;3.80;;;19.40;99.90;;;;;;5085203;28;20042;-85
2022/06/24 05:18:09;;;;;;;8.90;3.53;;;19.40;99.90;;;;;;5092298;28;20528;-85
2022/06/24 05:20:35;;;;;;;10.82;4.32;;;19.30;99.90;;;;;;5090236;28;20043;-85
2022/06/24 05:23:01;;;;;;;8.52;3.72;;;19.30;99.90;;;;;;5087472;28;20077;-85
2022/06/24 05:25:27;;;;;;;6.10;4.05;;;19.30;99.90;;;;;;5085046;28;20035;-85
2022/06/24 05:27:52;;;;;;;9.48;4.60;;;19.10;99.90;;;;;;5092006;28;20036;-85
2022/06/24 05:30:18;;;;;;;8.82;5.63;;;19.20;99.90;;;;;;5084070;28;20047;-85
2022/06/24 05:32:44;;;;;;;8.48;6.38;;;19.30;99.90;;;;;;5069358;27;20070;-85
2022/06/24 05:35:10;;;;;;;7.53;5.65;;;19.30;99.90;;;;;;5072187;27;20404;-84
2022/06/24 05:37:37;;;;;;;9.27;4.60;;;19.30;99.90;;;;;;5095333;27;20051;-84
2022/06/24 05:40:04;;;;;;;9.40;5.75;;;18.90;99.90;;;;;;5095999;27;20104;-85
2022/06/24 05:42:30;;;;;;;7.57;5.55;;;19.40;99.90;;;;;;5095119;27;20048;-85
2022/06/24 05:44:55;;;;;;;8.35;5.88;;;19.40;99.90;;;;;;5110838;27;20047;-86
2022/06/24 05:47:21;;;;;;;8.45;6.50;;;19.50;99.90;;;;;;5071113;27;20051;-85
2022/06/24 05:49:47;;;;;;;10.05;6.13;;;19.50;99.90;;;;;;5078129;27;20051;-85
2022/06/24 05:52:13;;;;;;;7.60;5.35;;;19.60;99.90;;;;;;5088632;27;20043;-85
2022/06/24 05:57:23;;;;;;;9.18;5.50;;;19.60;99.90;;;;;;5090742;27;20052;-85
2022/06/24 05:59:48;;;;;;;8.27;5.82;;;19.60;99.90;;;;;;5087718;27;20579;-85
2022/06/24 06:02:14;;;;;;;8.52;6.30;;;19.60;99.90;;;;;;5088409;27;20052;-86
2022/06/24 06:04:40;;;;;;;9.18;5.75;;;19.60;99.90;;;;;;5103646;27;20447;-85
2022/06/24 06:07:05;;;;;;;9.45;5.72;;;19.70;99.90;;;;;;5087711;27;20043;-85
2022/06/24 06:09:33;;;;;;;11.25;6.43;;;19.70;99.90;;;;;;5089057;27;20058;-85
2022/06/24 06:11:59;;;;;;;8.95;6.00;;;19.70;99.90;;;;;;5086590;27;20048;-85
2022/06/24 06:14:24;;;;;;;9.98;6.38;;;19.70;99.90;;;;;;5087416;27;20050;-85
2022/06/24 06:16:50;;;;;;;9.73;6.93;;;19.70;99.90;;;;;;5086751;27;20488;-85
2022/06/24 06:19:16;;;;;;;8.00;5.90;;;19.70;99.90;;;;;;5104366;27;20113;-85
2022/06/24 06:21:42;;;;;;;9.20;5.78;;;19.70;99.90;;;;;;5090709;27;20039;-85
2022/06/24 06:24:08;;;;;;;7.63;5.45;;;19.70;99.90;;;;;;5111621;27;20086;-85
2022/06/24 06:26:33;;;;;;;10.75;4.97;;;19.70;99.90;;;;;;5070303;27;20039;-85
2022/06/24 06:28:59;;;;;;;10.13;5.72;;;19.70;99.90;;;;;;5104201;27;20456;-85
2022/06/24 06:31:25;;;;;;;8.63;5.65;;;19.60;99.90;;;;;;5086987;27;20134;-84
2022/06/24 06:33:51;;;;;;;7.45;5.70;;;19.60;99.90;;;;;;5070554;27;20151;-85
2022/06/24 06:36:17;;;;;;;8.77;5.60;;;19.70;99.90;;;;;;5070689;27;20126;-86
2022/06/24 06:38:43;;;;;;;9.52;5.45;;;19.60;99.90;;;;;;5086827;27;20050;-85
2022/06/24 06:41:09;;;;;;;10.55;5.47;;;19.60;99.90;;;;;;5094776;27;20092;-85
2022/06/24 06:43:34;;;;;;;8.57;4.63;;;19.60;99.90;;;;;;5086519;27;20051;-86
2022/06/24 06:46:00;;;;;;;5.72;4.28;;;19.60;99.90;;;;;;5087134;27;20495;-86
2022/06/24 06:48:26;;;;;;;7.47;4.50;;;19.60;99.90;;;;;;5095036;27;20307;-85
2022/06/24 06:50:57;;;;;;;5.97;4.10;;;18.90;99.90;;;;;;5086681;27;20046;-85
2022/06/24 06:53:24;;;;;;;7.18;4.35;;;19.60;99.90;;;;;;5077009;27;20087;-85
2022/06/24 06:55:50;;;;;;;6.50;4.20;;;19.60;99.90;;;;;;5086996;27;20058;-85
2022/06/24 06:58:17;;;;;;;6.13;3.63;;;19.70;99.90;;;;;;5070058;27;20055;-85
2022/06/24 07:00:43;;;;;;;5.50;3.42;;;19.70;99.90;;;;;;5086371;27;20052;-85
2022/06/24 07:03:09;;;;;;;6.45;3.72;;;19.80;99.90;;;;;;5085367;27;20047;-85
2022/06/24 07:05:36;;;;;;;7.40;3.70;;;19.70;99.90;;;;;;5094337;27;20043;-85
2022/06/24 07:08:02;;;;;;;5.78;3.08;;;19.80;99.90;;;;;;5103656;27;20047;-85
2022/06/24 07:10:28;;;;;;;5.25;3.40;;;19.80;99.90;;;;;;5086073;27;20062;-85
2022/06/24 07:12:54;;;;;;;5.20;3.33;;;19.90;99.90;;;;;;5086635;27;20048;-85
2022/06/24 07:15:20;;;;;;;5.65;2.80;;;19.90;99.90;;;;;;5086365;27;20043;-85
2022/06/24 07:17:45;;;;;;;6.40;3.10;;;19.90;99.90;;;;;;5084792;27;20119;-86
2022/06/24 07:20:12;;;;;;;5.40;3.28;;;19.90;99.90;;;;;;5086394;27;20047;-85
2022/06/24 07:22:39;;;;;;;6.55;3.38;;;20.00;99.90;;;;;;5085894;27;20051;-85
2022/06/24 07:25:06;;;;;;;6.65;3.75;;;20.00;99.90;;;;;;5087246;27;20062;-85
2022/06/24 07:27:31;;;;;;;8.43;3.70;;;20.10;99.90;;;;;;5093724;27;20180;-85
2022/06/24 07:29:57;;;;;;;8.35;4.00;;;19.80;99.90;;;;;;5069333;27;20122;-85
2022/06/24 07:32:23;;;;;;;9.60;3.63;;;20.00;99.90;;;;;;5085754;27;20496;-85
2022/06/24 07:34:49;;;;;;;5.70;3.88;;;20.10;99.90;;;;;;5092101;27;20043;-85
2022/06/24 07:37:14;;;;;;;10.77;3.80;;;20.20;99.90;;;;;;5103744;27;20043;-85
2022/06/24 07:39:40;;;;;;;8.57;3.85;;;20.30;99.90;;;;;;5101031;27;20090;-85
2022/06/24 07:42:06;;;;;;;7.28;3.53;;;20.30;99.90;;;;;;5086762;27;20051;-86
2022/06/24 07:44:32;;;;;;;8.18;3.40;;;20.30;99.90;;;;;;5085205;27;20384;-85
2022/06/24 07:46:58;;;;;;;5.55;3.25;;;20.30;99.90;;;;;;5089519;27;20046;-85
2022/06/24 07:49:23;;;;;;;5.50;2.88;;;20.20;99.90;;;;;;5086142;27;20051;-86
2022/06/24 07:51:49;;;;;;;4.70;2.88;;;20.20;99.90;;;;;;5092985;27;20043;-85
2022/06/24 07:54:15;;;;;;;4.72;2.97;;;19.70;99.90;;;;;;5064579;28;20592;-86
2022/06/24 07:56:59;;;;;;;6.57;3.50;;;20.20;99.90;;;;;;5081202;28;20200;-85
2022/06/24 07:59:29;;;;;;;4.53;3.03;;;20.10;99.90;;;;;;5068846;28;20557;-85
2022/06/24 08:01:57;;;;;;;4.13;2.97;;;20.10;99.90;;;;;;5072233;28;20052;-85
2022/06/24 08:04:24;;;;;;;5.03;3.03;;;20.10;99.90;;;;;;5084737;28;20198;-85
2022/06/24 08:06:50;;;;;;;5.10;3.00;;;20.10;99.90;;;;;;5081652;28;20048;-84
2022/06/24 08:09:20;;;;;;;3.63;2.97;;;20.10;99.90;;;;;;5100277;28;20109;-85
2022/06/24 08:11:47;;;;;;;3.78;2.63;;;19.70;99.90;;;;;;5081963;28;20404;-84
2022/06/24 08:14:14;;;;;;;5.18;2.92;;;20.00;99.90;;;;;;5064689;28;20043;-85
2022/06/24 08:16:41;;;;;;;5.03;2.90;;;20.10;99.90;;;;;;5080999;28;20044;-85
2022/06/24 08:19:06;;;;;;;4.50;2.58;;;20.00;99.90;;;;;;5065117;28;20094;-85
2022/06/24 08:21:33;;;;;;;4.18;2.60;;;20.00;99.90;;;;;;5081700;28;20085;-85
2022/06/24 08:23:58;;;;;;;6.25;2.80;;;20.10;99.90;;;;;;5081526;28;20051;-86
2022/06/24 08:26:24;;;;;;;7.10;3.08;;;20.00;99.90;;;;;;5089247;28;20051;-85
2022/06/24 08:28:50;;;;;;;5.38;2.38;;;20.10;99.90;;;;;;5081021;28;20161;-84
2022/06/24 08:31:16;;;;;;;5.43;2.40;;;20.10;99.90;;;;;;5089060;28;20087;-85
2022/06/24 08:33:42;;;;;;;6.57;2.35;;;20.10;99.90;;;;;;5081137;28;20046;-85
2022/06/24 08:36:09;;;;;;;6.47;2.10;;;20.10;99.90;;;;;;5081911;28;20106;-85
2022/06/24 08:38:35;;;;;;;6.68;2.55;;;20.10;99.90;;;;;;5099483;28;20052;-84
2022/06/24 08:41:02;;;;;;;7.22;3.15;;;20.10;99.90;;;;;;5064397;28;20179;-85
2022/06/24 08:43:34;;;;;;;4.03;2.63;;;20.10;99.90;;;;;;5072706;28;20051;-85
2022/06/24 08:46:03;;;;;;;5.47;2.10;;;20.20;99.90;;;;;;5089470;28;20267;-84
2022/06/24 08:48:33;;;;;;;4.15;2.30;;;20.20;99.90;;;;;;5080618;28;20123;-85
2022/06/24 08:51:00;;;;;;;4.53;2.40;;;20.30;99.90;;;;;;5097853;28;20052;-84
2022/06/24 08:53:31;;;;;;;4.85;2.13;;;20.30;99.90;;;;;;5080148;28;20078;-84
2022/06/24 08:55:58;;;;;;;4.10;2.05;;;20.30;99.90;;;;;;5098994;28;20071;-85
2022/06/24 08:58:24;;;;;;;4.43;1.90;;;20.40;99.90;;;;;;5082068;28;20051;-84
2022/06/24 09:00:49;;;;;;;3.70;2.28;;;20.00;99.90;;;;;;5064674;28;20100;-84
2022/06/24 09:03:15;;;;;;;5.93;2.45;;;20.40;99.90;;;;;;5098427;28;20573;-84
2022/06/24 09:05:41;;;;;;;5.57;2.38;;;20.40;99.90;;;;;;5079988;28;20039;-84
2022/06/24 09:08:09;;;;;;;3.25;2.40;;;20.50;99.90;;;;;;5089770;28;20048;-84
2022/06/24 09:10:37;;;;;;;3.53;2.60;;;20.50;99.90;;;;;;5091058;28;20048;-84
2022/06/24 09:13:04;;;;;;;3.47;2.50;;;20.60;99.90;;;;;;5085740;28;20564;-84
2022/06/24 09:15:31;;;;;;;5.43;2.80;;;20.60;99.90;;;;;;5092290;28;20047;-84
2022/06/24 09:17:57;;;;;;;3.75;3.00;;;20.50;99.90;;;;;;5084043;28;20496;-84
2022/06/24 09:20:25;;;;;;;3.47;2.80;;;20.60;99.90;;;;;;5085011;28;20036;-84
2022/06/24 09:23:05;;;;;;;5.57;3.03;;;20.60;99.90;;;;;;5091992;28;20062;-84
2022/06/24 09:25:52;;;;;;;4.88;2.88;;;20.60;99.90;;;;;;5102089;28;20495;-84
2022/06/24 09:28:23;;;;;;;6.35;2.63;;;20.50;99.90;;;;;;5085792;28;20044;-84
2022/06/24 09:30:49;;;;;;;3.85;2.70;;;20.50;99.90;;;;;;5100575;28;20150;-84
2022/06/24 09:33:20;;;;;;;5.53;3.67;;;20.00;99.90;;;;;;5075401;28;20480;-84
2022/06/24 09:35:46;;;;;;;6.85;4.57;;;20.50;99.90;;;;;;5085089;28;20401;-85
2022/06/24 09:38:15;;;;;;;4.97;2.88;;;20.50;99.90;;;;;;5085447;28;20047;-84
2022/06/24 09:40:41;;;;;;;5.78;3.47;;;20.50;99.90;;;;;;5078895;28;20060;-84
2022/06/24 09:43:13;;;;;;;4.78;2.80;;;20.50;99.90;;;;;;5072870;28;20047;-83
2022/06/24 09:45:46;;;;;;;4.35;2.90;;;20.40;99.90;;;;;;5102248;28;20055;-84
2022/06/24 09:48:29;;;;;;;4.45;3.15;;;20.40;99.90;;;;;;5084710;28;20100;-84
2022/06/24 09:51:02;;;;;;;4.03;3.53;;;20.30;99.90;;;;;;5091882;28;20069;-84
2022/06/24 09:53:32;;;;;;;5.75;3.38;;;19.60;99.90;;;;;;5100596;28;20083;-84
2022/06/24 09:55:59;;;;;;;7.05;3.45;;;20.30;99.90;;;;;;5100997;28;20059;-83
2022/06/24 09:58:25;;;;;;;5.47;3.95;;;20.30;99.90;;;;;;5092481;28;20070;-84
2022/06/24 10:00:51;;;;;;;6.43;5.10;;;19.90;99.90;;;;;;5083893;28;20050;-84
2022/06/24 10:03:18;;;;;;;7.40;5.32;;;20.30;99.90;;;;;;5084820;28;20051;-84
2022/06/24 10:05:49;;;;;;;7.38;5.35;;;20.30;99.90;;;;;;5101454;28;20488;-84
2022/06/24 10:08:24;;;;;;;7.88;5.43;;;20.40;99.90;;;;;;5094313;28;20437;-84
2022/06/24 10:10:52;;;;;;;8.00;5.27;;;20.40;99.90;;;;;;5093312;28;20137;-84
2022/06/24 10:13:26;;;;;;;6.07;4.78;;;20.40;99.90;;;;;;5084214;28;20825;-84
2022/06/24 10:15:57;;;;;;;7.10;4.50;;;20.40;99.90;;;;;;5099906;28;20050;-85
2022/06/24 10:18:28;;;;;;;6.38;4.78;;;20.40;99.90;;;;;;5085051;28;20130;-84
2022/06/24 10:21:00;;;;;;;7.18;5.30;;;20.40;99.90;;;;;;5098490;28;20055;-85
2022/06/24 10:23:48;;;;;;;10.07;4.78;;;20.40;99.90;;;;;;5083673;28;20040;-85
2022/06/24 10:26:22;;;;;;;7.30;4.63;;;20.50;99.90;;;;;;5085279;28;20378;-84
2022/06/24 10:29:00;;;;;;;6.35;5.18;;;20.80;99.90;;;;;;5083832;28;20055;-85
2022/06/24 10:31:54;;;;;;;6.32;5.00;;;20.50;99.90;;;;;;5100512;28;20554;-85
2022/06/24 10:34:43;;;;;;;9.02;5.75;;;20.50;99.90;;;;;;5091685;28;20039;-85
2022/06/24 10:37:16;;;;;;;8.95;5.50;;;20.30;99.90;;;;;;5067941;28;20043;-85
2022/06/24 10:39:52;;;;;;;8.52;5.30;;;20.50;99.90;;;;;;5082967;28;20048;-85
2022/06/24 10:42:24;;;;;;;8.32;4.93;;;20.50;99.90;;;;;;5083895;28;20055;-86
2022/06/24 10:45:02;;;;;;;6.43;5.47;;;20.60;99.90;;;;;;5084189;28;20450;-86
2022/06/24 10:47:43;;;;;;;7.80;5.78;;;20.70;99.90;;;;;;5091770;28;20434;-86
2022/06/24 10:50:13;;;;;;;9.57;6.20;;;20.20;99.90;;;;;;5101107;28;20062;-85
2022/06/24 10:53:00;;;;;;;9.73;6.55;;;20.90;99.90;;;;;;5099651;28;20086;-86
2022/06/24 10:55:29;;;;;;;7.50;6.22;;;20.90;99.90;;;;;;5100640;28;20051;-87
2022/06/24 10:58:03;;;;;;;9.82;6.18;;;20.20;99.90;;;;;;5083303;28;20052;-86
2022/06/24 11:00:51;;;;;;;7.68;6.03;;;21.00;99.90;;;;;;5099546;28;20082;-86
2022/06/24 11:03:23;;;;;;;7.00;5.82;;;21.00;99.90;;;;;;5084285;28;20396;-85
2022/06/24 11:05:51;;;;;;;7.20;5.40;;;21.10;99.90;;;;;;5101371;28;20514;-85
2022/06/24 11:08:24;;;;;;;6.05;4.90;;;21.20;99.90;;;;;;5084050;28;20058;-86
2022/06/24 11:10:54;;;;;;;8.48;5.53;;;21.20;99.90;;;;;;5085126;28;20063;-85
2022/06/24 11:13:23;;;;;;;6.82;5.72;;;21.20;99.90;;;;;;5081909;28;20049;-85
2022/06/24 11:15:55;;;;;;;8.25;6.25;;;21.20;99.90;;;;;;5091230;28;20079;-85
2022/06/24 11:18:28;;;;;;;8.10;6.80;;;20.70;99.90;;;;;;5101288;28;20123;-86
2022/06/24 11:21:02;;;;;;;8.02;7.22;;;21.20;99.90;;;;;;5109805;28;20031;-85
2022/06/24 11:23:40;;;;;;;8.25;6.95;;;21.20;99.90;;;;;;5112288;28;20058;-86
2022/06/24 11:26:16;;;;;;;10.00;7.45;;;21.30;99.90;;;;;;5090380;28;20047;-87
2022/06/24 11:28:50;;;;;;;10.73;7.50;;;21.30;99.90;;;;;;5084133;28;20048;-87
2022/06/24 11:31:37;;;;;;;9.13;8.18;;;21.30;99.90;;;;;;5099108;28;20052;-88
2022/06/24 11:34:05;;;;;;;9.63;7.93;;;21.40;99.90;;;;;;5090956;28;20043;-87
2022/06/24 11:36:38;;;;;;;9.52;8.52;;;20.70;99.90;;;;;;5082795;28;20090;-88
2022/06/24 11:39:09;;;;;;;9.77;8.25;;;21.50;99.90;;;;;;5082771;28;20048;-87
2022/06/24 11:41:46;;;;;;;9.35;7.70;;;21.20;99.90;;;;;;5098933;28;20051;-86
2022/06/24 11:44:13;;;;;;;10.90;8.43;;;21.40;99.90;;;;;;5081726;28;20052;-87
2022/06/24 11:46:39;;;;;;;12.50;9.68;;;21.60;99.90;;;;;;5099687;28;20059;-86
2022/06/24 11:49:12;;;;;;;10.90;8.90;;;21.70;99.90;;;;;;5067765;28;20057;-87
2022/06/24 11:51:40;;;;;;;11.68;9.40;;;21.80;99.90;;;;;;5082577;28;20039;-88
2022/06/24 11:54:07;;;;;;;12.05;8.63;;;21.30;99.90;;;;;;5083227;28;20059;-86
2022/06/24 11:56:35;;;;;;;10.85;9.65;;;21.80;99.90;;;;;;5091303;28;20048;-87
2022/06/24 11:59:05;;;;;;;10.88;9.27;;;21.80;99.90;;;;;;5089963;28;20068;-88
2022/06/24 12:01:40;;;;;;;11.52;9.30;;;21.70;99.90;;;;;;5085443;28;20062;-92
2022/06/24 12:04:29;;;;;;;11.02;8.93;;;21.70;99.90;;;;;;5100623;28;20051;-93
2022/06/24 12:06:58;;;;;;;10.52;9.43;;;21.70;99.90;;;;;;5095014;28;20044;-94
2022/06/24 12:09:24;;;;;;;12.23;8.90;;;21.70;99.90;;;;;;5072845;28;20044;-86
2022/06/24 12:11:53;;;;;;;9.63;8.55;;;21.70;99.90;;;;;;5067401;28;20043;-87
2022/06/24 12:14:20;;;;;;;9.63;8.65;;;21.80;99.90;;;;;;5084738;28;20050;-87
2022/06/24 12:17:06;;;;;;;12.93;10.18;;;21.80;99.90;;;;;;5082732;28;20082;-87
2022/06/24 12:19:37;;;;;;;11.60;10.32;;;21.90;99.90;;;;;;5086268;28;20040;-87
2022/06/24 12:22:08;;;;;;;11.30;10.10;;;22.00;99.90;;;;;;5082866;28;20162;-87
2022/06/24 12:24:34;;;;;;;11.63;10.30;;;22.10;99.90;;;;;;5092728;28;20101;-85
2022/06/24 12:27:03;;;;;;;11.45;9.60;;;22.30;99.90;;;;;;5084211;28;20492;-87
2022/06/24 12:29:45;;;;;;;13.00;10.13;;;22.50;99.90;;;;;;5087719;28;20104;-87
2022/06/24 12:32:11;;;;;;;11.70;9.48;;;22.70;99.90;;;;;;5084856;28;20044;-88
2022/06/24 12:34:48;;;;;;;12.10;10.20;;;22.80;99.90;;;;;;5084028;28;20480;-87
2022/06/24 12:37:19;;;;;;;12.95;11.10;;;22.90;99.90;;;;;;5086982;28;20051;-87
2022/06/24 12:39:55;;;;;;;11.73;10.30;;;22.90;99.90;;;;;;5107136;28;20043;-87
2022/06/24 12:42:25;;;;;;;12.57;9.73;;;23.00;99.90;;;;;;5091017;28;20122;-87
2022/06/24 12:44:54;;;;;;;11.40;10.23;;;23.10;99.90;;;;;;5088626;28;20062;-87
2022/06/24 12:53:05;;;;;;;11.93;10.00;;;23.10;99.90;;;;;;5101410;28;20051;-87
2022/06/24 12:55:33;;;;;;;10.63;9.52;;;23.10;99.90;;;;;;5086162;28;20055;-88
2022/06/24 12:58:04;;;;;;;11.43;9.40;;;23.10;99.90;;;;;;5090286;28;20058;-87
2022/06/24 13:00:33;;;;;;;10.75;9.38;;;23.10;99.90;;;;;;5107916;28;20710;-87
2022/06/24 13:02:59;;;;;;;10.88;8.55;;;22.70;99.90;;;;;;5107473;28;20365;-87
2022/06/24 13:05:34;;;;;;;11.70;9.30;;;23.20;99.90;;;;;;5087568;28;20047;-87